Time;durP1;ratioP1;P1;durP2;ratioP2;P2;SDS_P1;SDS_P2;PMS_P1;PMS_P2;Temp;Humidity;BMP_temperature;BMP_pressure;BME280_temperature;BME280_humidity;BME280_pressure;Samples;Min_cycle;Max_cycle;Signal;HPM_P1;HPM_P2
2023/06/16 00:01:59;;;;;;;11.40;5.17;;;;;;;10.02;100.00;96557.72;10499188;28;20285;-73
2023/06/16 00:07:01;;;;;;;8.67;5.67;;;;;;;9.96;100.00;96561.78;10499094;28;20187;-72
2023/06/16 00:12:02;;;;;;;10.43;5.03;;;;;;;9.97;100.00;96550.34;10499002;28;20195;-73
2023/06/16 00:17:03;;;;;;;6.60;5.60;;;;;;;9.86;100.00;96553.22;10498999;28;20215;-73
2023/06/16 00:22:06;;;;;;;12.03;5.83;;;;;;;9.95;100.00;96549.69;10498025;28;20625;-72
2023/06/16 00:27:06;;;;;;;7.13;5.10;;;;;;;10.02;100.00;96541.22;10498387;28;20183;-73
2023/06/16 00:32:06;;;;;;;10.77;6.20;;;;;;;9.93;100.00;96528.09;10496744;28;20671;-72
2023/06/16 00:37:07;;;;;;;8.97;5.37;;;;;;;9.88;100.00;96516.47;10497734;28;20721;-72
2023/06/16 00:42:08;;;;;;;6.10;5.37;;;;;;;9.84;100.00;96522.97;10496741;28;20187;-72
2023/06/16 00:47:08;;;;;;;9.17;5.53;;;;;;;9.85;100.00;96525.44;10496390;28;20219;-72
2023/06/16 00:52:10;;;;;;;11.43;5.90;;;;;;;9.75;100.00;96519.50;10497641;28;20175;-73
2023/06/16 00:57:10;;;;;;;7.13;5.60;;;;;;;9.86;100.00;96521.81;10497565;28;20285;-73
2023/06/16 01:02:10;;;;;;;6.90;5.17;;;;;;;9.89;100.00;96513.69;10494719;28;20223;-72
2023/06/16 01:07:15;;;;;;;6.70;5.43;;;;;;;9.92;100.00;96518.63;10496201;28;20190;-73
2023/06/16 01:12:26;;;;;;;8.57;5.17;;;;;;;9.90;100.00;96507.47;10495284;28;20686;-72
2023/06/16 01:17:29;;;;;;;7.97;5.30;;;;;;;9.82;100.00;96505.63;10496490;28;20215;-72
2023/06/16 01:22:44;;;;;;;7.93;5.30;;;;;;;9.79;100.00;96495.47;10496306;28;20196;-72
2023/06/16 01:27:47;;;;;;;11.27;5.57;;;;;;;9.72;100.00;96497.06;10495413;28;20187;-72
2023/06/16 01:32:55;;;;;;;8.87;5.57;;;;;;;9.61;100.00;96497.34;10494586;28;20283;-72
2023/06/16 01:37:57;;;;;;;6.10;5.07;;;;;;;9.54;100.00;96494.56;10495847;28;20227;-72
2023/06/16 01:42:57;;;;;;;9.70;5.33;;;;;;;9.48;100.00;96495.19;10494359;28;20207;-72
2023/06/16 01:47:58;;;;;;;7.80;5.20;;;;;;;9.49;100.00;96498.59;10495540;28;20233;-72
2023/06/16 01:52:59;;;;;;;5.93;4.70;;;;;;;9.52;100.00;96485.22;10493903;28;20183;-72
2023/06/16 01:57:59;;;;;;;11.00;5.00;;;;;;;9.51;100.00;96491.41;10493909;28;20710;-73
2023/06/16 02:03:12;;;;;;;5.90;4.93;;;;;;;9.38;100.00;96492.66;10493152;28;20569;-73
2023/06/16 02:08:15;;;;;;;7.07;4.87;;;;;;;9.41;100.00;96494.16;10493455;28;20189;-73
2023/06/16 02:13:16;;;;;;;7.97;5.13;;;;;;;9.52;100.00;96478.19;10493375;28;20245;-72
2023/06/16 02:18:24;;;;;;;7.13;5.03;;;;;;;9.58;100.00;96488.03;10492547;28;20635;-72
2023/06/16 02:23:24;;;;;;;7.90;5.03;;;;;;;9.55;100.00;96475.25;10494278;28;20187;-72
2023/06/16 02:28:25;;;;;;;8.83;5.20;;;;;;;9.64;100.00;96478.75;10475752;28;20195;-73
2023/06/16 02:33:27;;;;;;;7.40;4.80;;;;;;;9.72;100.00;96470.91;10492999;28;20195;-73
2023/06/16 02:38:27;;;;;;;6.87;5.07;;;;;;;9.68;100.00;96468.78;10492644;28;20211;-73
2023/06/16 02:43:28;;;;;;;8.47;5.03;;;;;;;9.57;100.00;96465.47;10492983;28;20712;-72
2023/06/16 02:48:28;;;;;;;10.90;4.57;;;;;;;9.58;100.00;96468.91;10474649;28;20333;-72
2023/06/16 02:53:30;;;;;;;7.57;4.83;;;;;;;9.58;100.00;96467.09;10449928;28;20276;-73
2023/06/16 02:58:33;;;;;;;7.00;4.73;;;;;;;9.76;100.00;96469.63;10433781;28;20191;-72
2023/06/16 03:03:35;;;;;;;8.73;4.50;;;;;;;9.87;100.00;96465.91;10432279;28;20247;-72
2023/06/16 03:08:52;;;;;;;8.37;4.73;;;;;;;9.79;100.00;96469.31;10446531;28;20191;-72
2023/06/16 03:13:53;;;;;;;7.07;4.33;;;;;;;9.77;100.00;96465.22;10428627;28;20216;-72
2023/06/16 03:18:55;;;;;;;6.30;4.67;;;;;;;9.81;100.00;96467.34;10445017;28;20200;-72
2023/06/16 03:23:56;;;;;;;6.37;4.73;;;;;;;9.78;100.00;96464.25;10446249;28;20185;-72
2023/06/16 03:28:58;;;;;;;10.00;5.17;;;;;;;9.82;100.00;96469.00;10428298;28;20198;-72
2023/06/16 03:34:00;;;;;;;7.87;4.47;;;;;;;9.88;100.00;96462.34;10445300;28;20763;-72
2023/06/16 03:39:00;;;;;;;7.33;5.03;;;;;;;9.96;100.00;96472.81;10445475;28;20215;-71
2023/06/16 03:44:03;;;;;;;7.83;5.20;;;;;;;10.06;100.00;96466.63;10445005;28;20206;-71
2023/06/16 03:49:04;;;;;;;6.57;4.93;;;;;;;10.16;100.00;96473.38;10445707;28;20204;-72
2023/06/16 03:54:05;;;;;;;10.07;4.97;;;;;;;10.15;100.00;96478.75;10444825;28;20215;-72
2023/06/16 03:59:05;;;;;;;10.30;5.47;;;;;;;10.21;100.00;96482.53;10444847;28;20648;-72
2023/06/16 04:04:07;;;;;;;7.13;4.97;;;;;;;10.39;100.00;96482.47;10447330;28;20838;-72
2023/06/16 04:09:08;;;;;;;7.00;4.93;;;;;;;10.52;100.00;96486.25;10449750;28;20190;-72
2023/06/16 04:14:09;;;;;;;7.63;4.93;;;;;;;10.79;100.00;96481.66;10484165;28;20962;-72
2023/06/16 04:19:10;;;;;;;9.00;5.22;;;;;;;10.98;100.00;96491.03;10491166;28;20184;-72
2023/06/16 04:24:11;;;;;;;11.55;4.88;;;;;;;11.11;100.00;96485.25;10489710;28;20241;-72
2023/06/16 04:29:14;;;;;;;10.25;5.38;;;;;;;11.18;100.00;96477.53;10489699;28;20191;-72
2023/06/16 04:34:16;;;;;;;8.52;4.78;;;;;;;11.15;100.00;96483.97;10489254;28;20215;-72
2023/06/16 04:39:17;;;;;;;8.27;5.28;;;;;;;11.20;100.00;96478.22;10473641;28;20203;-71
2023/06/16 04:44:19;;;;;;;11.25;5.68;;;;;;;11.22;100.00;96477.06;10496391;28;20678;-72
2023/06/16 04:49:21;;;;;;;9.50;5.22;;;;;;;11.24;100.00;96480.34;10496932;28;20180;-72
2023/06/16 04:54:21;;;;;;;9.73;5.75;;;;;;;11.35;100.00;96479.19;10495642;28;20219;-72
2023/06/16 04:59:22;;;;;;;6.57;4.97;;;;;;;11.46;100.00;96482.44;10496469;28;20195;-72
2023/06/16 05:04:22;;;;;;;6.32;5.20;;;;;;;11.62;100.00;96482.38;10495639;28;20764;-72
2023/06/16 05:09:23;;;;;;;10.15;5.30;;;;;;;11.74;100.00;96469.72;10496919;28;20330;-73
2023/06/16 05:14:23;;;;;;;11.25;5.38;;;;;;;11.94;100.00;96470.16;10495792;28;20223;-72
2023/06/16 05:19:24;;;;;;;9.23;5.43;;;;;;;12.18;100.00;96461.34;10495220;28;20183;-72
2023/06/16 05:24:31;;;;;;;5.82;4.80;;;;;;;12.51;100.00;96448.03;10495275;28;20186;-72
2023/06/16 05:29:33;;;;;;;7.82;4.50;;;;;;;12.68;100.00;96456.59;10494707;28;20223;-72
2023/06/16 05:34:35;;;;;;;8.10;5.20;;;;;;;13.11;100.00;96449.00;10494845;28;20210;-71
2023/06/16 05:39:36;;;;;;;9.82;5.13;;;;;;;13.74;98.51;96438.16;10494424;28;21010;-72
2023/06/16 05:44:36;;;;;;;7.15;5.47;;;;;;;14.30;91.82;96415.69;10494263;28;20189;-72
2023/06/16 05:49:37;;;;;;;8.65;4.68;;;;;;;14.72;90.10;96414.09;10493966;28;20230;-71
2023/06/16 05:54:37;;;;;;;10.30;5.22;;;;;;;14.71;86.25;96413.28;10494485;28;20699;-72
2023/06/16 05:59:42;;;;;;;7.82;5.53;;;;;;;14.73;84.82;96402.53;10480098;28;20679;-72
2023/06/16 06:04:42;;;;;;;8.52;4.85;;;;;;;14.73;84.87;96407.81;10494552;28;20245;-72
2023/06/16 06:09:43;;;;;;;8.75;5.20;;;;;;;14.67;84.61;96408.56;10493054;28;20268;-72
2023/06/16 06:14:43;;;;;;;11.10;5.43;;;;;;;14.66;82.94;96401.69;10492884;28;20218;-72
2023/06/16 06:19:44;;;;;;;9.48;5.25;;;;;;;14.37;83.61;96420.03;10492989;28;20187;-71
2023/06/16 06:24:45;;;;;;;10.23;5.65;;;;;;;14.21;84.16;96420.25;10492590;28;20187;-72
2023/06/16 06:29:45;;;;;;;13.57;5.43;;;;;;;14.47;84.21;96417.06;10492439;28;20217;-72
2023/06/16 06:34:46;;;;;;;9.35;5.35;;;;;;;15.89;79.63;96396.75;10493258;28;20226;-72
2023/06/16 06:39:46;;;;;;;6.72;4.65;;;;;;;17.22;74.42;96371.47;10492108;28;20219;-72
2023/06/16 06:44:47;;;;;;;6.78;5.13;;;;;;;16.09;75.85;96385.44;10493089;28;20286;-72
2023/06/16 06:49:49;;;;;;;7.68;5.13;;;;;;;16.77;72.71;96362.34;10491802;28;20660;-72
2023/06/16 06:54:49;;;;;;;8.32;4.55;;;;;;;16.99;72.92;96383.31;10492717;28;20341;-72
2023/06/16 06:59:50;;;;;;;6.57;4.53;;;;;;;17.36;72.96;96383.66;10489854;28;20282;-73
2023/06/16 07:04:50;;;;;;;11.27;5.30;;;;;;;18.46;67.79;96340.34;10489818;28;20238;-73
2023/06/16 07:09:51;;;;;;;7.10;4.68;;;;;;;17.96;68.18;96351.69;10490964;28;20706;-73
2023/06/16 07:14:51;;;;;;;5.03;4.53;;;;;;;18.86;66.70;96352.50;10490693;28;20285;-72
2023/06/16 07:19:51;;;;;;;6.70;5.05;;;;;;;17.40;70.05;96376.94;10490436;28;20278;-72
2023/06/16 07:24:52;;;;;;;6.00;4.32;;;;;;;19.25;66.03;96356.63;10490604;28;20241;-72
2023/06/16 07:29:52;;;;;;;8.15;5.20;;;;;;;18.67;65.71;96338.34;10490532;28;20195;-73
2023/06/16 07:34:53;;;;;;;7.93;5.55;;;;;;;19.05;66.21;96371.91;10490399;28;20317;-73
2023/06/16 07:39:53;;;;;;;6.70;4.88;;;;;;;20.17;63.31;96357.59;10489402;28;20223;-73
2023/06/16 07:44:53;;;;;;;8.38;5.15;;;;;;;17.99;69.50;96406.09;10489496;28;20274;-73
2023/06/16 07:49:54;;;;;;;12.00;5.10;;;;;;;19.45;64.17;96344.13;10489627;28;20191;-73
2023/06/16 07:54:55;;;;;;;13.15;6.00;;;;;;;18.03;68.01;96395.91;10489521;28;20213;-72
2023/06/16 07:59:55;;;;;;;8.55;5.65;;;;;;;17.37;69.47;96401.19;10488942;28;20206;-73
2023/06/16 08:04:55;;;;;;;11.15;5.57;;;;;;;18.20;67.88;96391.72;10489442;28;20694;-73
2023/06/16 08:09:56;;;;;;;10.52;5.82;;;;;;;18.24;68.99;96405.34;10479792;28;20678;-73
2023/06/16 08:14:56;;;;;;;7.40;5.78;;;;;;;18.60;67.69;96404.72;10471433;28;20683;-73
2023/06/16 08:19:56;;;;;;;10.05;6.00;;;;;;;18.94;66.26;96393.88;10471571;28;20647;-72
2023/06/16 08:24:57;;;;;;;10.38;6.07;;;;;;;19.27;65.42;96377.63;10492315;28;20738;-73
2023/06/16 08:29:57;;;;;;;8.07;6.47;;;;;;;20.51;61.86;96360.56;10496428;28;20833;-73
2023/06/16 08:34:58;;;;;;;7.88;5.78;;;;;;;20.04;62.57;96358.56;10495726;28;20609;-73
2023/06/16 08:39:58;;;;;;;9.48;6.05;;;;;;;21.16;60.16;96346.41;10496049;28;20623;-73
2023/06/16 08:45:00;;;;;;;10.65;5.97;;;;;;;21.07;61.07;96366.47;10493926;28;20196;-73
2023/06/16 08:50:00;;;;;;;8.88;5.63;;;;;;;20.72;61.32;96364.56;10480853;28;20285;-73
2023/06/16 08:55:01;;;;;;;9.68;5.50;;;;;;;18.57;69.54;96460.06;10491619;28;20304;-72
2023/06/16 09:00:02;;;;;;;5.95;5.07;;;;;;;18.79;65.80;96408.25;10492036;28;20196;-73
2023/06/16 09:05:03;;;;;;;10.63;5.13;;;;;;;19.32;66.71;96414.97;10478888;28;20223;-73
2023/06/16 09:10:05;;;;;;;9.20;4.90;;;;;;;21.18;60.51;96346.19;10451955;28;20274;-74
2023/06/16 09:15:10;;;;;;;5.35;4.65;;;;;;;21.01;59.78;96336.22;10450212;28;20617;-73
2023/06/16 09:20:15;;;;;;;7.63;4.63;;;;;;;18.63;66.92;96417.56;10452286;28;20275;-73
2023/06/16 09:25:16;;;;;;;6.30;4.60;;;;;;;18.66;68.61;96450.81;10460140;28;20603;-72
2023/06/16 09:30:18;;;;;;;9.02;4.38;;;;;;;19.03;67.66;96437.72;10492046;28;20217;-73
2023/06/16 09:35:27;;;;;;;5.78;4.00;;;;;;;19.19;65.42;96399.97;10494342;28;20219;-72
2023/06/16 09:40:32;;;;;;;6.22;4.28;;;;;;;19.62;64.93;96408.97;10492606;28;20257;-73
2023/06/16 09:45:33;;;;;;;6.60;4.00;;;;;;;19.86;64.58;96415.25;10491017;28;20552;-73
2023/06/16 09:50:33;;;;;;;4.82;3.92;;;;;;;19.52;66.51;96430.72;10491008;28;20191;-72
2023/06/16 09:55:37;;;;;;;6.82;3.40;;;;;;;19.94;62.23;96369.75;10490629;28;20618;-72
2023/06/16 10:00:37;;;;;;;3.75;3.05;;;;;;;20.70;62.13;96381.81;10489695;28;20199;-73
2023/06/16 10:05:40;;;;;;;3.95;3.10;;;;;;;18.74;64.26;96375.44;10473716;28;20234;-73
2023/06/16 10:10:42;;;;;;;5.18;2.88;;;;;;;19.31;65.85;96412.53;10484224;28;20191;-73
2023/06/16 10:15:43;;;;;;;7.00;3.28;;;;;;;19.46;64.41;96383.75;10452880;28;20261;-73
2023/06/16 10:20:45;;;;;;;4.70;3.10;;;;;;;19.13;66.89;96429.25;10470578;28;20196;-73
2023/06/16 10:25:46;;;;;;;5.13;3.35;;;;;;;18.53;70.05;96455.19;10491604;28;20191;-73
2023/06/16 10:30:49;;;;;;;5.90;3.95;;;;;;;18.68;67.61;96408.94;10479731;28;20207;-73
2023/06/16 10:35:55;;;;;;;5.75;3.70;;;;;;;19.05;69.57;96460.38;10487931;28;20215;-73
2023/06/16 10:40:56;;;;;;;7.35;3.65;;;;;;;19.05;69.78;96454.22;10489249;28;20207;-73
2023/06/16 10:46:12;;;;;;;5.45;3.28;;;;;;;20.30;66.13;96415.09;10472599;28;20183;-73
2023/06/16 10:51:12;;;;;;;3.47;3.17;;;;;;;20.30;65.56;96417.75;10447063;28;20195;-73
2023/06/16 10:56:13;;;;;;;7.13;3.40;;;;;;;20.74;61.89;96378.47;10446730;28;20223;-72
2023/06/16 11:01:24;;;;;;;3.92;3.30;;;;;;;20.77;61.09;96371.88;10452970;28;20227;-73
2023/06/16 11:06:24;;;;;;;7.53;3.25;;;;;;;20.48;62.04;96382.31;10488872;28;20191;-73
2023/06/16 11:11:33;;;;;;;4.45;3.40;;;;;;;20.81;61.74;96386.31;10470971;28;20195;-74
2023/06/16 11:16:34;;;;;;;5.00;3.33;;;;;;;21.09;59.51;96352.91;10463029;28;20296;-73
2023/06/16 11:21:34;;;;;;;9.55;4.22;;;;;;;21.58;60.33;96387.28;10445887;28;20276;-74
2023/06/16 11:26:35;;;;;;;5.38;4.22;;;;;;;21.79;58.21;96361.84;10446627;28;20191;-73
2023/06/16 11:31:35;;;;;;;7.65;4.05;;;;;;;21.11;61.54;96420.06;10447798;28;20242;-73
2023/06/16 11:36:36;;;;;;;5.57;4.18;;;;;;;19.93;63.91;96425.81;10479165;28;20714;-73
2023/06/16 11:41:36;;;;;;;8.32;4.13;;;;;;;19.77;65.49;96459.13;10488113;28;20187;-72
2023/06/16 11:47:29;;;;;;;5.65;3.33;;;;;;;19.76;64.91;96436.19;10488860;28;20187;-73
2023/06/16 11:52:30;;;;;;;5.47;3.95;;;;;;;18.99;67.39;96457.75;10577679;28;20201;-72
2023/06/16 11:57:36;;;;;;;7.95;3.65;;;;;;;18.33;70.25;96494.22;10562634;28;20229;-72
2023/06/16 12:02:37;;;;;;;4.10;3.47;;;;;;;17.44;74.36;96536.22;10580448;28;20581;-72
2023/06/16 12:07:38;;;;;;;6.95;3.50;;;;;;;16.41;81.42;96558.38;10561770;28;20199;-72
2023/06/16 12:12:38;;;;;;;12.15;3.90;;;;;;;16.37;86.98;96552.69;10578913;28;20526;-72
2023/06/16 12:17:39;;;;;;;5.78;3.50;;;;;;;16.30;89.98;96551.00;10562549;28;20228;-73
2023/06/16 12:22:39;;;;;;;3.88;3.47;;;;;;;16.51;91.22;96552.75;10543486;28;20577;-72
2023/06/16 12:27:49;;;;;;;3.60;3.00;;;;;;;15.85;100.00;96564.59;10579208;28;20186;-73
2023/06/16 12:32:49;;;;;;;5.53;2.97;;;;;;;15.06;100.00;96561.09;10576946;28;20205;-73
2023/06/16 12:37:50;;;;;;;3.65;3.30;;;;;;;14.96;100.00;96565.84;10558331;28;20271;-73
2023/06/16 12:42:50;;;;;;;3.00;2.65;;;;;;;14.71;100.00;96562.75;10592995;27;20184;-72
2023/06/16 12:47:51;;;;;;;6.38;4.20;;;;;;;14.00;100.00;96568.56;10558968;28;20245;-73
2023/06/16 12:52:51;;;;;;;4.88;4.38;;;;;;;13.68;100.00;96573.97;10577406;28;20269;-73
2023/06/16 12:57:51;;;;;;;7.35;4.03;;;;;;;13.69;100.00;96565.06;10577240;28;20221;-73
2023/06/16 13:02:52;;;;;;;7.13;4.47;;;;;;;13.96;100.00;96572.53;10578240;28;20230;-73
2023/06/16 13:07:53;;;;;;;4.90;4.18;;;;;;;14.09;100.00;96567.47;10577686;27;20281;-73
2023/06/16 13:12:53;;;;;;;5.65;4.03;;;;;;;14.44;100.00;96565.88;10574284;28;20243;-73
2023/06/16 13:17:53;;;;;;;7.72;4.18;;;;;;;13.83;100.00;96560.81;10557990;28;20656;-73
2023/06/16 13:22:54;;;;;;;6.78;4.88;;;;;;;13.98;100.00;96563.47;10576676;28;20560;-73
2023/06/16 13:27:54;;;;;;;7.30;4.65;;;;;;;14.65;100.00;96560.88;10560517;28;20570;-72
2023/06/16 13:32:54;;;;;;;7.25;4.80;;;;;;;15.81;100.00;96545.66;10577513;28;20627;-73
2023/06/16 13:37:55;;;;;;;5.07;4.25;;;;;;;16.66;100.00;96529.59;10577517;28;20576;-73
2023/06/16 13:42:55;;;;;;;7.15;3.85;;;;;;;16.02;100.00;96520.19;10576166;28;20534;-73
2023/06/16 13:47:56;;;;;;;5.68;3.90;;;;;;;15.78;100.00;96548.69;10576656;28;20227;-73
2023/06/16 13:52:56;;;;;;;9.77;4.47;;;;;;;15.46;100.00;96552.69;10576002;28;20190;-73
2023/06/16 13:57:56;;;;;;;8.18;5.53;;;;;;;15.78;100.00;96532.03;10575412;28;20575;-73
2023/06/16 14:02:57;;;;;;;9.75;4.95;;;;;;;18.18;100.00;96511.22;10575240;28;20284;-73
2023/06/16 14:07:58;;;;;;;6.95;4.30;;;;;;;19.33;86.25;96463.63;10575211;28;20186;-73
2023/06/16 14:12:58;;;;;;;6.47;4.70;;;;;;;18.93;84.19;96453.28;10572572;28;20197;-73
2023/06/16 14:17:59;;;;;;;9.30;5.15;;;;;;;18.27;86.17;96465.91;10571779;28;20226;-73
2023/06/16 14:22:59;;;;;;;5.20;4.68;;;;;;;17.71;87.52;96469.97;10571237;28;20189;-73
2023/06/16 14:27:59;;;;;;;5.18;4.38;;;;;;;17.24;88.82;96477.97;10574329;28;20190;-73
2023/06/16 14:33:00;;;;;;;7.25;5.18;;;;;;;16.20;97.84;96501.97;10575270;28;20628;-74
2023/06/16 14:38:00;;;;;;;10.45;5.97;;;;;;;15.69;100.00;96523.41;10574891;28;20664;-74
2023/06/16 14:43:01;;;;;;;8.38;6.30;;;;;;;15.05;100.00;96533.06;10572950;28;20559;-75
2023/06/16 14:48:02;;;;;;;9.85;6.57;;;;;;;15.05;100.00;96532.25;10554691;28;20281;-74
2023/06/16 14:53:02;;;;;;;12.45;6.88;;;;;;;15.05;100.00;96532.25;10573476;28;20189;-75
2023/06/16 14:58:02;;;;;;;7.88;6.72;;;;;;;15.66;100.00;96521.97;10572863;28;20218;-75
2023/06/16 15:03:03;;;;;;;7.72;6.63;;;;;;;15.53;100.00;96500.78;10572112;28;20249;-74
2023/06/16 15:08:03;;;;;;;8.55;6.82;;;;;;;16.00;100.00;96501.88;10573129;28;20204;-74
2023/06/16 15:13:04;;;;;;;9.23;6.53;;;;;;;16.44;100.00;96501.66;10572329;28;20198;-73
2023/06/16 15:18:04;;;;;;;7.70;6.00;;;;;;;16.46;100.00;96491.69;10570290;28;20236;-73
2023/06/16 15:23:04;;;;;;;8.50;6.57;;;;;;;16.99;100.00;96470.63;10570072;28;20205;-73
2023/06/16 15:28:05;;;;;;;8.02;5.80;;;;;;;17.03;98.07;96457.81;10571772;28;20189;-73
2023/06/16 15:33:05;;;;;;;7.18;5.95;;;;;;;16.22;100.00;96467.41;10570637;28;20334;-74
2023/06/16 15:38:07;;;;;;;8.73;5.35;;;;;;;16.43;100.00;96460.34;10570384;28;20217;-73
2023/06/16 15:43:09;;;;;;;9.52;5.90;;;;;;;16.08;100.00;96455.97;10572076;28;20262;-73
2023/06/16 15:48:10;;;;;;;6.05;5.45;;;;;;;15.84;100.00;96465.22;10571513;28;20250;-73
2023/06/16 15:53:10;;;;;;;7.53;5.25;;;;;;;15.54;100.00;96468.06;10570195;28;20205;-73
2023/06/16 15:58:11;;;;;;;8.73;5.10;;;;;;;15.41;100.00;96460.06;10572349;28;20214;-74
2023/06/16 16:03:11;;;;;;;7.20;5.13;;;;;;;15.31;100.00;96471.78;10571030;28;20291;-74
2023/06/16 16:08:13;;;;;;;10.23;6.18;;;;;;;14.98;100.00;96485.53;10572695;28;20536;-74
2023/06/16 16:13:13;;;;;;;5.88;5.22;;;;;;;14.84;100.00;96469.75;10570860;28;20205;-74
2023/06/16 16:18:15;;;;;;;7.80;5.63;;;;;;;14.89;100.00;96476.13;10571901;28;20689;-73
2023/06/16 16:23:15;;;;;;;9.63;5.85;;;;;;;15.14;100.00;96483.63;10573353;28;20243;-74
2023/06/16 16:28:16;;;;;;;8.70;6.28;;;;;;;15.10;100.00;96487.63;10573178;28;20186;-73
2023/06/16 16:33:16;;;;;;;7.78;6.15;;;;;;;15.22;100.00;96490.59;10571735;28;20638;-74
2023/06/16 16:38:17;;;;;;;11.68;5.93;;;;;;;15.09;100.00;96493.94;10578016;28;20263;-74
2023/06/16 16:43:17;;;;;;;7.13;5.72;;;;;;;14.28;100.00;96505.47;10579780;28;20600;-74
2023/06/16 16:48:17;;;;;;;5.68;5.07;;;;;;;14.04;100.00;96519.75;10579615;28;20981;-73
2023/06/16 16:53:18;;;;;;;14.20;6.32;;;;;;;13.60;100.00;96521.41;10579184;28;20186;-73
2023/06/16 16:58:18;;;;;;;9.20;6.38;;;;;;;13.29;100.00;96532.00;10580076;28;20335;-74
2023/06/16 17:03:18;;;;;;;8.45;6.40;;;;;;;13.16;100.00;96535.25;10579464;28;20328;-74
2023/06/16 17:08:19;;;;;;;9.40;5.95;;;;;;;13.00;100.00;96528.31;10580343;28;20181;-73
2023/06/16 17:13:19;;;;;;;6.43;5.47;;;;;;;12.77;100.00;96529.16;10579161;28;20190;-73
2023/06/16 17:18:19;;;;;;;7.82;6.03;;;;;;;12.67;100.00;96539.88;10578945;28;20305;-73
2023/06/16 17:23:20;;;;;;;12.35;6.53;;;;;;;12.59;100.00;96544.38;10576961;28;20217;-74
2023/06/16 17:28:20;;;;;;;6.75;6.15;;;;;;;12.62;100.00;96551.91;10576097;28;20531;-74
2023/06/16 17:33:21;;;;;;;7.53;6.43;;;;;;;12.65;100.00;96552.38;10576032;28;20197;-74
2023/06/16 17:38:21;;;;;;;8.43;6.60;;;;;;;12.80;100.00;96549.81;10576190;28;20623;-74
2023/06/16 17:43:22;;;;;;;8.32;6.20;;;;;;;12.90;100.00;96552.22;10574955;28;20181;-74
2023/06/16 17:48:22;;;;;;;8.43;6.22;;;;;;;12.94;100.00;96547.41;10557150;28;20747;-73
2023/06/16 17:53:22;;;;;;;9.50;5.88;;;;;;;12.78;100.00;96551.78;10575024;28;20197;-74
2023/06/16 17:58:23;;;;;;;8.00;6.07;;;;;;;12.82;100.00;96545.19;10575396;28;20213;-74
2023/06/16 18:03:23;;;;;;;8.90;6.65;;;;;;;12.94;100.00;96539.53;10576330;28;20333;-74
2023/06/16 18:08:23;;;;;;;7.45;6.68;;;;;;;12.97;100.00;96549.69;10575971;28;20198;-74
2023/06/16 18:13:24;;;;;;;9.15;6.25;;;;;;;13.13;100.00;96554.84;10575767;28;20193;-74
2023/06/16 18:18:24;;;;;;;6.68;6.05;;;;;;;13.18;100.00;96547.25;10575347;28;20229;-74
2023/06/16 18:23:25;;;;;;;7.40;6.07;;;;;;;13.28;100.00;96540.94;10575373;28;20196;-73
2023/06/16 18:28:25;;;;;;;8.98;6.65;;;;;;;13.25;100.00;96547.34;10575125;28;20957;-73
2023/06/16 18:33:26;;;;;;;9.73;7.18;;;;;;;13.26;100.00;96538.47;10574492;28;20676;-73
2023/06/16 18:38:26;;;;;;;7.47;6.13;;;;;;;13.22;100.00;96528.47;10575135;28;20624;-73
2023/06/16 18:43:26;;;;;;;7.47;6.47;;;;;;;13.05;100.00;96519.88;10573526;28;20181;-73
2023/06/16 18:48:27;;;;;;;8.15;6.45;;;;;;;12.76;100.00;96535.38;10574950;28;20230;-73
2023/06/16 18:53:27;;;;;;;10.95;7.65;;;;;;;12.66;100.00;96540.88;10574154;28;20285;-73
2023/06/16 18:58:27;;;;;;;11.45;8.55;;;;;;;12.37;100.00;96535.44;10572890;28;20217;-74
2023/06/16 19:03:28;;;;;;;8.57;7.55;;;;;;;12.11;100.00;96531.28;10573878;28;20221;-73
2023/06/16 19:08:28;;;;;;;10.32;7.90;;;;;;;12.00;100.00;96545.59;10574187;28;20265;-74
2023/06/16 19:13:28;;;;;;;12.07;8.00;;;;;;;11.80;100.00;96553.03;10573452;28;20247;-74
2023/06/16 19:18:30;;;;;;;10.90;8.02;;;;;;;11.76;100.00;96557.78;10573559;28;20221;-74
2023/06/16 19:23:30;;;;;;;12.15;8.20;;;;;;;11.47;100.00;96560.13;10572691;28;20205;-74
2023/06/16 19:29:00;;;;;;;13.20;8.20;;;;;;;11.39;100.00;96577.53;10574105;28;20193;-74
2023/06/16 19:34:01;;;;;;;11.55;8.00;;;;;;;11.30;100.00;96577.69;10551275;28;20204;-73
2023/06/16 19:39:02;;;;;;;13.20;8.10;;;;;;;11.13;100.00;96584.72;10573399;28;20202;-74
2023/06/16 19:44:02;;;;;;;12.30;8.45;;;;;;;10.99;100.00;96588.81;10572411;28;20212;-74
2023/06/16 19:49:03;;;;;;;11.70;9.30;;;;;;;10.83;100.00;96598.28;10573732;28;20277;-74
2023/06/16 19:54:03;;;;;;;9.25;8.32;;;;;;;10.75;100.00;96595.66;10571906;28;20281;-74
2023/06/16 19:59:04;;;;;;;12.85;8.45;;;;;;;10.67;100.00;96599.09;10573383;28;20193;-74
2023/06/16 20:04:06;;;;;;;10.73;8.27;;;;;;;10.66;100.00;96599.25;10572166;28;20232;-74
2023/06/16 20:09:07;;;;;;;10.60;8.65;;;;;;;10.64;100.00;96601.19;10573302;28;20190;-74
2023/06/16 20:14:10;;;;;;;12.20;8.52;;;;;;;10.55;100.00;96608.22;10581184;28;20277;-74
2023/06/16 20:19:11;;;;;;;11.82;8.52;;;;;;;10.46;100.00;96596.88;10580801;28;20193;-74
2023/06/16 20:24:11;;;;;;;9.52;8.15;;;;;;;10.47;100.00;96598.50;10580300;28;20265;-74
2023/06/16 20:29:12;;;;;;;11.82;8.23;;;;;;;10.42;100.00;96592.94;10580030;28;20197;-74
2023/06/16 20:34:12;;;;;;;11.20;7.93;;;;;;;10.37;100.00;96583.91;10579194;28;20190;-74
2023/06/16 20:39:13;;;;;;;9.98;8.80;;;;;;;10.32;100.00;96579.09;10561951;28;20567;-74
2023/06/16 20:44:14;;;;;;;10.75;8.35;;;;;;;10.18;100.00;96562.19;10578876;28;20667;-74
2023/06/16 20:49:16;;;;;;;10.73;8.93;;;;;;;10.12;100.00;96570.69;10579819;28;20296;-74
2023/06/16 20:54:16;;;;;;;11.23;8.52;;;;;;;10.09;100.00;96565.75;10578800;28;20705;-73
2023/06/16 20:59:17;;;;;;;11.82;8.80;;;;;;;9.96;100.00;96561.78;10579777;28;20186;-74
2023/06/16 21:04:21;;;;;;;11.87;8.40;;;;;;;9.89;100.00;96560.78;10578344;28;20233;-74
2023/06/16 21:09:22;;;;;;;8.90;7.97;;;;;;;9.89;100.00;96563.41;10578154;28;20308;-74
2023/06/16 21:14:22;;;;;;;14.50;9.47;;;;;;;9.72;100.00;96564.28;10578661;28;20202;-73
2023/06/16 21:19:22;;;;;;;12.87;9.20;;;;;;;9.73;100.00;96564.13;10577883;28;20190;-74
2023/06/16 21:24:26;;;;;;;10.40;8.33;;;;;;;9.67;100.00;96563.94;10577221;28;20281;-74
2023/06/16 21:29:26;;;;;;;10.73;8.17;;;;;;;9.60;100.00;96567.16;10559107;28;20186;-74
2023/06/16 21:34:27;;;;;;;10.07;8.90;;;;;;;9.58;100.00;96563.06;10577306;28;20214;-74
2023/06/16 21:39:28;;;;;;;10.27;8.30;;;;;;;9.48;100.00;96565.78;10578048;28;20224;-74
2023/06/16 21:44:28;;;;;;;11.97;8.67;;;;;;;9.41;100.00;96564.75;10577898;28;20186;-74
2023/06/16 21:49:28;;;;;;;10.43;7.73;;;;;;;9.39;100.00;96566.69;10578142;28;20210;-73
2023/06/16 21:54:29;;;;;;;13.37;9.13;;;;;;;9.29;100.00;96566.75;10577984;28;20221;-74
2023/06/16 21:59:29;;;;;;;11.00;8.80;;;;;;;9.25;100.00;96562.84;10578155;28;20190;-74
2023/06/16 22:04:29;;;;;;;12.43;9.10;;;;;;;9.19;100.00;96566.88;10577183;28;20232;-74
2023/06/16 22:09:30;;;;;;;11.30;9.70;;;;;;;9.28;100.00;96567.75;10577862;28;20205;-73
2023/06/16 22:14:30;;;;;;;15.13;10.10;;;;;;;9.24;100.00;96571.63;10576953;28;20229;-74
2023/06/16 22:19:35;;;;;;;11.50;8.97;;;;;;;9.34;100.00;96580.22;10577063;28;20186;-74
2023/06/16 22:24:37;;;;;;;11.90;9.23;;;;;;;9.51;100.00;96568.09;10576774;28;20770;-74
2023/06/16 22:29:38;;;;;;;12.53;9.83;;;;;;;9.57;100.00;96567.47;10577126;28;20190;-74
2023/06/16 22:34:38;;;;;;;13.13;9.30;;;;;;;9.69;100.00;96560.16;10575669;28;20286;-73
2023/06/16 22:39:39;;;;;;;10.80;8.73;;;;;;;9.75;100.00;96554.31;10577108;28;20206;-74
2023/06/16 22:44:39;;;;;;;11.43;8.60;;;;;;;9.75;100.00;96545.66;10575390;28;20182;-74
2023/06/16 22:49:39;;;;;;;10.47;8.93;;;;;;;9.66;100.00;96538.75;10575989;28;20211;-74
2023/06/16 22:54:40;;;;;;;12.87;8.97;;;;;;;9.68;100.00;96540.22;10575544;28;20233;-74
2023/06/16 22:59:40;;;;;;;11.33;8.53;;;;;;;9.78;100.00;96540.91;10575727;28;20742;-74
2023/06/16 23:04:40;;;;;;;10.13;8.77;;;;;;;9.72;100.00;96538.13;10574975;28;20230;-73
2023/06/16 23:09:41;;;;;;;10.07;8.33;;;;;;;9.75;100.00;96538.63;10575378;28;20238;-74